N853CM KJAC-KBZN
Flight info
| Callsign | N853CM |
|---|---|
| Flight time | 0h 59m |
| Altitude | 28000 |
| Route | ALPIN5 KICNE HUKET/N0271F270 LOSST/N0273F280 |
| Aircraft | SF50/L-BDGRSWY/LB2U2 |
Departure
| Time | 2026-04-28 05:35 |
|---|---|
| Airport | Jackson Hole Airport (KJAC) |
Arrival
| Time | 2026-04-28 06:35 |
|---|---|
| Airport | Bozeman Yellowstone International Airport (KBZN) |
| Time | Latitude | Longitude | Altitude | Speed | Heading |
|---|---|---|---|---|---|
| 2026-04-28 05:15 | 43.60207 | -110.73785 | 6422 ft | 0 kts | 199° |
| 2026-04-28 05:26 | 43.60207 | -110.73786 | 6422 ft | 1 kts | 215° |
| 2026-04-28 05:26 | 43.60206 | -110.73787 | 6422 ft | 0 kts | 259° |
| 2026-04-28 05:27 | 43.60209 | -110.73791 | 6422 ft | 3 kts | 11° |
| 2026-04-28 05:27 | 43.60252 | -110.73797 | 6422 ft | 8 kts | 344° |
| 2026-04-28 05:27 | 43.60305 | -110.73775 | 6424 ft | 8 kts | 14° |
| 2026-04-28 05:27 | 43.60368 | -110.73751 | 6424 ft | 12 kts | 19° |
| 2026-04-28 05:28 | 43.60454 | -110.73709 | 6426 ft | 14 kts | 17° |
| 2026-04-28 05:28 | 43.60524 | -110.73679 | 6429 ft | 0 kts | 16° |
| 2026-04-28 05:30 | 43.60526 | -110.73679 | 6429 ft | 1 kts | 347° |
| 2026-04-28 05:30 | 43.60550 | -110.73691 | 6429 ft | 7 kts | 348° |
| 2026-04-28 05:31 | 43.60627 | -110.73668 | 6431 ft | 14 kts | 20° |
| 2026-04-28 05:31 | 43.60736 | -110.73615 | 6434 ft | 18 kts | 21° |
| 2026-04-28 05:31 | 43.60858 | -110.73563 | 6436 ft | 18 kts | 13° |
| 2026-04-28 05:31 | 43.60969 | -110.73504 | 6439 ft | 16 kts | 28° |
| 2026-04-28 05:32 | 43.61061 | -110.73459 | 6441 ft | 12 kts | 20° |
| 2026-04-28 05:32 | 43.61131 | -110.73421 | 6442 ft | 9 kts | 18° |
| 2026-04-28 05:32 | 43.61178 | -110.73400 | 6443 ft | 5 kts | 19° |
| 2026-04-28 05:32 | 43.61202 | -110.73389 | 6441 ft | 1 kts | 19° |
| 2026-04-28 05:33 | 43.61226 | -110.73376 | 6440 ft | 12 kts | 20° |
| 2026-04-28 05:33 | 43.61335 | -110.73324 | 6446 ft | 21 kts | 19° |
| 2026-04-28 05:33 | 43.61477 | -110.73255 | 6449 ft | 12 kts | 2° |
| 2026-04-28 05:34 | 43.61495 | -110.73262 | 6445 ft | 0 kts | 322° |
| 2026-04-28 05:34 | 43.61495 | -110.73261 | 6445 ft | 0 kts | 322° |
| 2026-04-28 05:34 | 43.61517 | -110.73297 | 6451 ft | 12 kts | 292° |
| 2026-04-28 05:35 | 43.61500 | -110.73404 | 6449 ft | 15 kts | 199° |
| 2026-04-28 05:35 | 43.61301 | -110.73501 | 6442 ft | 60 kts | 203° |
| 2026-04-28 05:35 | 43.60688 | -110.73778 | 6567 ft | 113 kts | 198° |
| 2026-04-28 05:35 | 43.59918 | -110.73799 | 7104 ft | 116 kts | 188° |
| 2026-04-28 05:36 | 43.59084 | -110.74066 | 7300 ft | 131 kts | 221° |
| 2026-04-28 05:36 | 43.58408 | -110.75063 | 7451 ft | 160 kts | 222° |
| 2026-04-28 05:36 | 43.57382 | -110.75839 | 7838 ft | 173 kts | 207° |
| 2026-04-28 05:36 | 43.56273 | -110.76539 | 8350 ft | 176 kts | 207° |
| 2026-04-28 05:37 | 43.55148 | -110.77274 | 8804 ft | 183 kts | 208° |
| 2026-04-28 05:37 | 43.54018 | -110.78009 | 9695 ft | 176 kts | 209° |
| 2026-04-28 05:37 | 43.52985 | -110.78681 | 10325 ft | 175 kts | 210° |
| 2026-04-28 05:40 | 43.52213 | -110.79185 | 10715 ft | 177 kts | 210° |
| 2026-04-28 05:40 | 43.51103 | -110.79920 | 11356 ft | 177 kts | 210° |
| 2026-04-28 05:40 | 43.49976 | -110.80651 | 11907 ft | 180 kts | 209° |
| 2026-04-28 05:40 | 43.48827 | -110.81397 | 12468 ft | 184 kts | 210° |
| 2026-04-28 05:41 | 43.47774 | -110.82080 | 13023 ft | 183 kts | 210° |
| 2026-04-28 05:44 | 43.47530 | -110.82236 | 13151 ft | 183 kts | 210° |
| 2026-04-28 05:44 | 43.46376 | -110.82989 | 13747 ft | 184 kts | 210° |
| 2026-04-28 05:44 | 43.45207 | -110.83748 | 14262 ft | 186 kts | 210° |
| 2026-04-28 05:44 | 43.44029 | -110.84512 | 14750 ft | 188 kts | 210° |
| 2026-04-28 05:45 | 43.42838 | -110.85283 | 15257 ft | 189 kts | 210° |
| 2026-04-28 05:45 | 43.41656 | -110.86049 | 15764 ft | 190 kts | 211° |
| 2026-04-28 05:45 | 43.40479 | -110.86865 | 16273 ft | 187 kts | 218° |
| 2026-04-28 05:45 | 43.39528 | -110.88070 | 16798 ft | 183 kts | 232° |
| 2026-04-28 05:46 | 43.38830 | -110.89517 | 17279 ft | 182 kts | 245° |
| 2026-04-28 05:46 | 43.38415 | -110.91134 | 17806 ft | 181 kts | 257° |
| 2026-04-28 05:46 | 43.38302 | -110.92856 | 18321 ft | 182 kts | 269° |
| 2026-04-28 05:46 | 43.38505 | -110.94588 | 18745 ft | 186 kts | 281° |
| 2026-04-28 05:47 | 43.39033 | -110.96241 | 19144 ft | 193 kts | 294° |
| 2026-04-28 05:47 | 43.39889 | -110.97695 | 19548 ft | 202 kts | 307° |
| 2026-04-28 05:47 | 43.41074 | -110.98845 | 19950 ft | 215 kts | 323° |
| 2026-04-28 05:47 | 43.42534 | -110.99502 | 20351 ft | 228 kts | 341° |
| 2026-04-28 05:48 | 43.44154 | -110.99609 | 20706 ft | 235 kts | 351° |
| 2026-04-28 05:48 | 43.45792 | -110.99666 | 21064 ft | 236 kts | 349° |
| 2026-04-28 05:48 | 43.47417 | -110.99739 | 21471 ft | 236 kts | 349° |
| 2026-04-28 05:48 | 43.49065 | -110.99795 | 21892 ft | 237 kts | 350° |
| 2026-04-28 05:49 | 43.50717 | -110.99858 | 22280 ft | 237 kts | 349° |
| 2026-04-28 05:49 | 43.52368 | -110.99920 | 22678 ft | 238 kts | 349° |
| 2026-04-28 05:49 | 43.54009 | -110.99978 | 23125 ft | 238 kts | 349° |
| 2026-04-28 05:49 | 43.55671 | -111.00037 | 23540 ft | 239 kts | 349° |
| 2026-04-28 05:50 | 43.57342 | -111.00105 | 23898 ft | 239 kts | 349° |
| 2026-04-28 05:50 | 43.59001 | -111.00168 | 24276 ft | 238 kts | 349° |
| 2026-04-28 05:50 | 43.60658 | -111.00230 | 24627 ft | 237 kts | 349° |
| 2026-04-28 05:50 | 43.62282 | -111.00290 | 25041 ft | 234 kts | 350° |
| 2026-04-28 05:51 | 43.63906 | -111.00347 | 25438 ft | 232 kts | 350° |
| 2026-04-28 05:51 | 43.65522 | -111.00409 | 25811 ft | 232 kts | 350° |
| 2026-04-28 05:51 | 43.67138 | -111.00472 | 26168 ft | 231 kts | 350° |
| 2026-04-28 05:51 | 43.68726 | -111.00528 | 26527 ft | 230 kts | 350° |
| 2026-04-28 05:52 | 43.70330 | -111.00587 | 26892 ft | 230 kts | 350° |
| 2026-04-28 05:52 | 43.71927 | -111.00647 | 27259 ft | 229 kts | 350° |
| 2026-04-28 05:52 | 43.73522 | -111.00711 | 27621 ft | 228 kts | 350° |
| 2026-04-28 05:52 | 43.75114 | -111.00769 | 27974 ft | 229 kts | 350° |
| 2026-04-28 05:53 | 43.76734 | -111.00836 | 28002 ft | 242 kts | 350° |
| 2026-04-28 05:53 | 43.78459 | -111.00901 | 28010 ft | 253 kts | 351° |
| 2026-04-28 05:53 | 43.80254 | -111.00962 | 28012 ft | 262 kts | 351° |
| 2026-04-28 05:53 | 43.82104 | -111.01029 | 28019 ft | 270 kts | 352° |
| 2026-04-28 05:54 | 43.84010 | -111.01100 | 28017 ft | 277 kts | 352° |
| 2026-04-28 05:54 | 43.85935 | -111.01174 | 28020 ft | 283 kts | 352° |
| 2026-04-28 05:54 | 43.87939 | -111.01245 | 28021 ft | 290 kts | 352° |
| 2026-04-28 05:54 | 43.89982 | -111.01320 | 28028 ft | 296 kts | 352° |
| 2026-04-28 05:55 | 43.92059 | -111.01397 | 28028 ft | 300 kts | 352° |
| 2026-04-28 05:55 | 43.94158 | -111.01475 | 28027 ft | 303 kts | 352° |
| 2026-04-28 05:55 | 43.98408 | -111.01635 | 28023 ft | 308 kts | 352° |
| 2026-04-28 05:56 | 44.02731 | -111.01798 | 28016 ft | 312 kts | 353° |
| 2026-04-28 05:56 | 44.07055 | -111.01953 | 28022 ft | 313 kts | 353° |
| 2026-04-28 05:57 | 44.11430 | -111.02123 | 28026 ft | 314 kts | 353° |
| 2026-04-28 05:57 | 44.15812 | -111.02290 | 28023 ft | 315 kts | 353° |
| 2026-04-28 05:58 | 44.20203 | -111.02455 | 28023 ft | 315 kts | 353° |
| 2026-04-28 05:58 | 44.24561 | -111.02619 | 28016 ft | 313 kts | 353° |
| 2026-04-28 05:59 | 44.28891 | -111.02785 | 28014 ft | 312 kts | 353° |
| 2026-04-28 05:59 | 44.33238 | -111.02948 | 28013 ft | 312 kts | 353° |
| 2026-04-28 06:00 | 44.37571 | -111.03117 | 28005 ft | 314 kts | 353° |
| 2026-04-28 06:00 | 44.41939 | -111.03285 | 28004 ft | 314 kts | 353° |
| 2026-04-28 06:01 | 44.46316 | -111.03452 | 27998 ft | 314 kts | 353° |
| 2026-04-28 06:01 | 44.48514 | -111.03534 | 27995 ft | 315 kts | 353° |
| 2026-04-28 06:01 | 44.50684 | -111.03617 | 27993 ft | 315 kts | 353° |
| 2026-04-28 06:02 | 44.52880 | -111.03700 | 27990 ft | 315 kts | 353° |
| 2026-04-28 06:02 | 44.55060 | -111.03782 | 27988 ft | 314 kts | 353° |
| 2026-04-28 06:02 | 44.57245 | -111.03867 | 27984 ft | 313 kts | 353° |
| 2026-04-28 06:02 | 44.59418 | -111.03952 | 27997 ft | 311 kts | 353° |
| 2026-04-28 06:03 | 44.61562 | -111.04034 | 27984 ft | 311 kts | 353° |
| 2026-04-28 06:03 | 44.63724 | -111.04119 | 27974 ft | 310 kts | 353° |
| 2026-04-28 06:03 | 44.65880 | -111.04201 | 27973 ft | 310 kts | 353° |
| 2026-04-28 06:03 | 44.68038 | -111.04286 | 27974 ft | 311 kts | 353° |
| 2026-04-28 06:04 | 44.70209 | -111.04369 | 27974 ft | 311 kts | 353° |
| 2026-04-28 06:04 | 44.72378 | -111.04454 | 27974 ft | 311 kts | 353° |
| 2026-04-28 06:04 | 44.74520 | -111.04538 | 27975 ft | 311 kts | 353° |
| 2026-04-28 06:04 | 44.76693 | -111.04619 | 27976 ft | 312 kts | 353° |
| 2026-04-28 06:05 | 44.78868 | -111.04652 | 27975 ft | 313 kts | 358° |
| 2026-04-28 06:05 | 44.81043 | -111.04145 | 27974 ft | 318 kts | 8° |
| 2026-04-28 06:05 | 44.83214 | -111.03522 | 27979 ft | 318 kts | 6° |
| 2026-04-28 06:05 | 44.85368 | -111.02945 | 27986 ft | 318 kts | 6° |
| 2026-04-28 06:06 | 44.87546 | -111.02345 | 27989 ft | 319 kts | 7° |
| 2026-04-28 06:06 | 44.89731 | -111.01729 | 27996 ft | 319 kts | 7° |
| 2026-04-28 06:06 | 44.91915 | -111.01120 | 27997 ft | 320 kts | 6° |
| 2026-04-28 06:06 | 44.94075 | -111.00521 | 28001 ft | 320 kts | 6° |
| 2026-04-28 06:07 | 44.98462 | -110.99297 | 28007 ft | 321 kts | 6° |
| 2026-04-28 06:07 | 45.02835 | -110.98077 | 28035 ft | 318 kts | 6° |
| 2026-04-28 06:08 | 45.07126 | -110.96877 | 28029 ft | 315 kts | 6° |
| 2026-04-28 06:08 | 45.11457 | -110.95661 | 28043 ft | 317 kts | 6° |
| 2026-04-28 06:09 | 45.13647 | -110.95403 | 28035 ft | 312 kts | 353° |
| 2026-04-28 06:09 | 45.15757 | -110.95814 | 28035 ft | 307 kts | 342° |
| 2026-04-28 06:09 | 45.19930 | -110.97110 | 28044 ft | 307 kts | 342° |
| 2026-04-28 06:10 | 45.23417 | -110.98172 | 28053 ft | 306 kts | 342° |
| 2026-04-28 06:10 | 45.28275 | -110.99669 | 28060 ft | 306 kts | 343° |
| 2026-04-28 06:11 | 45.31730 | -111.00738 | 28055 ft | 305 kts | 342° |
| 2026-04-28 06:11 | 45.36554 | -111.02225 | 28059 ft | 304 kts | 343° |
| 2026-04-28 06:12 | 45.39999 | -111.03284 | 28059 ft | 304 kts | 343° |
| 2026-04-28 06:12 | 45.42098 | -111.03933 | 27450 ft | 312 kts | 343° |
| 2026-04-28 06:12 | 45.44201 | -111.04582 | 26658 ft | 304 kts | 343° |
| 2026-04-28 06:13 | 45.46216 | -111.05204 | 25894 ft | 295 kts | 343° |
| 2026-04-28 06:13 | 45.48214 | -111.05823 | 25142 ft | 292 kts | 343° |
| 2026-04-28 06:13 | 45.50202 | -111.06446 | 24411 ft | 294 kts | 343° |
| 2026-04-28 06:13 | 45.52224 | -111.07073 | 23697 ft | 298 kts | 344° |
| 2026-04-28 06:14 | 45.54253 | -111.07698 | 22878 ft | 299 kts | 344° |
| 2026-04-28 06:14 | 45.56265 | -111.08318 | 22069 ft | 299 kts | 344° |
| 2026-04-28 06:14 | 45.58299 | -111.08952 | 21270 ft | 299 kts | 344° |
| 2026-04-28 06:14 | 45.60309 | -111.09752 | 20481 ft | 297 kts | 334° |
| 2026-04-28 06:15 | 45.62154 | -111.11072 | 19739 ft | 295 kts | 328° |
| 2026-04-28 06:15 | 45.63910 | -111.12522 | 19010 ft | 293 kts | 327° |
| 2026-04-28 06:15 | 45.65663 | -111.14023 | 18273 ft | 292 kts | 327° |
| 2026-04-28 06:15 | 45.67845 | -111.15918 | 17248 ft | 294 kts | 326° |
| 2026-04-28 06:16 | 45.68484 | -111.16475 | 16956 ft | 295 kts | 326° |
| 2026-04-28 06:17 | 45.70240 | -111.18004 | 16161 ft | 294 kts | 326° |
| 2026-04-28 06:17 | 45.71976 | -111.19508 | 15343 ft | 289 kts | 326° |
| 2026-04-28 06:17 | 45.73673 | -111.20964 | 14600 ft | 286 kts | 326° |
| 2026-04-28 06:18 | 45.77078 | -111.23855 | 13047 ft | 281 kts | 326° |
| 2026-04-28 06:18 | 45.78763 | -111.25284 | 12249 ft | 279 kts | 326° |
| 2026-04-28 06:18 | 45.80398 | -111.26685 | 11484 ft | 275 kts | 327° |
| 2026-04-28 06:18 | 45.82028 | -111.28107 | 10720 ft | 271 kts | 326° |
| 2026-04-28 06:19 | 45.83642 | -111.29524 | 9980 ft | 271 kts | 327° |
| 2026-04-28 06:19 | 45.85229 | -111.30932 | 9198 ft | 269 kts | 326° |
| 2026-04-28 06:19 | 45.86764 | -111.32289 | 8839 ft | 245 kts | 327° |
| 2026-04-28 06:19 | 45.88157 | -111.33521 | 8648 ft | 224 kts | 326° |
| 2026-04-28 06:20 | 45.89485 | -111.34707 | 8643 ft | 235 kts | 326° |
| 2026-04-28 06:20 | 45.90920 | -111.35989 | 8658 ft | 252 kts | 326° |
| 2026-04-28 06:20 | 45.92416 | -111.37330 | 8665 ft | 244 kts | 326° |
| 2026-04-28 06:20 | 45.93867 | -111.38343 | 8646 ft | 235 kts | 346° |
| 2026-04-28 06:21 | 45.95471 | -111.37982 | 8647 ft | 240 kts | 25° |
| 2026-04-28 06:21 | 45.96588 | -111.36220 | 8650 ft | 246 kts | 64° |
| 2026-04-28 06:21 | 45.96743 | -111.33783 | 8650 ft | 247 kts | 100° |
| 2026-04-28 06:21 | 45.95959 | -111.31631 | 8645 ft | 247 kts | 137° |
| 2026-04-28 06:22 | 45.94492 | -111.30420 | 8650 ft | 242 kts | 159° |
| 2026-04-28 06:22 | 45.92922 | -111.29538 | 8652 ft | 243 kts | 161° |
| 2026-04-28 06:22 | 45.91343 | -111.28668 | 8650 ft | 243 kts | 161° |
| 2026-04-28 06:22 | 45.89782 | -111.27814 | 8649 ft | 243 kts | 161° |
| 2026-04-28 06:23 | 45.88200 | -111.26957 | 8644 ft | 242 kts | 161° |
| 2026-04-28 06:23 | 45.86620 | -111.26094 | 8643 ft | 242 kts | 162° |
| 2026-04-28 06:23 | 45.85044 | -111.25220 | 8640 ft | 242 kts | 161° |
| 2026-04-28 06:23 | 45.83485 | -111.24401 | 8632 ft | 239 kts | 167° |
| 2026-04-28 06:24 | 45.81850 | -111.24584 | 8629 ft | 235 kts | 206° |
| 2026-04-28 06:24 | 45.80621 | -111.26010 | 8633 ft | 230 kts | 229° |
| 2026-04-28 06:24 | 45.79558 | -111.27740 | 8638 ft | 231 kts | 231° |
| 2026-04-28 06:24 | 45.78509 | -111.29494 | 8638 ft | 232 kts | 231° |
| 2026-04-28 06:25 | 45.77537 | -111.31300 | 8632 ft | 230 kts | 244° |
| 2026-04-28 06:25 | 45.77347 | -111.33532 | 8632 ft | 231 kts | 283° |
| 2026-04-28 06:25 | 45.78145 | -111.35513 | 8642 ft | 232 kts | 309° |
| 2026-04-28 06:25 | 45.79216 | -111.37247 | 8647 ft | 232 kts | 311° |
| 2026-04-28 06:26 | 45.80300 | -111.38965 | 8653 ft | 231 kts | 311° |
| 2026-04-28 06:26 | 45.81387 | -111.40614 | 8643 ft | 230 kts | 319° |
| 2026-04-28 06:26 | 45.82768 | -111.41799 | 8644 ft | 232 kts | 332° |
| 2026-04-28 06:26 | 45.84224 | -111.42805 | 8646 ft | 233 kts | 333° |
| 2026-04-28 06:27 | 45.85692 | -111.43807 | 8648 ft | 233 kts | 333° |
| 2026-04-28 06:27 | 45.87158 | -111.44806 | 8651 ft | 234 kts | 333° |
| 2026-04-28 06:27 | 45.88632 | -111.45805 | 8651 ft | 234 kts | 333° |
| 2026-04-28 06:27 | 45.90101 | -111.46803 | 8660 ft | 234 kts | 333° |
| 2026-04-28 06:28 | 45.91641 | -111.47367 | 8645 ft | 236 kts | 1° |
| 2026-04-28 06:28 | 45.93141 | -111.46446 | 8651 ft | 241 kts | 40° |
| 2026-04-28 06:28 | 45.93928 | -111.44343 | 8651 ft | 243 kts | 79° |
| 2026-04-28 06:28 | 45.93989 | -111.41924 | 8656 ft | 242 kts | 91° |
| 2026-04-28 06:29 | 45.93945 | -111.39492 | 8661 ft | 245 kts | 91° |
| 2026-04-28 06:29 | 45.93657 | -111.37086 | 8512 ft | 252 kts | 114° |
| 2026-04-28 06:29 | 45.92525 | -111.35317 | 8251 ft | 232 kts | 149° |
| 2026-04-28 06:29 | 45.91257 | -111.34047 | 7966 ft | 214 kts | 140° |
| 2026-04-28 06:30 | 45.90259 | -111.32635 | 7693 ft | 198 kts | 135° |
| 2026-04-28 06:30 | 45.89241 | -111.31215 | 7425 ft | 204 kts | 137° |
| 2026-04-28 06:30 | 45.88230 | -111.29822 | 7144 ft | 202 kts | 136° |
| 2026-04-28 06:30 | 45.87252 | -111.28422 | 6880 ft | 195 kts | 137° |
| 2026-04-28 06:31 | 45.86323 | -111.27147 | 6635 ft | 175 kts | 138° |
| 2026-04-28 06:31 | 45.85519 | -111.26010 | 6371 ft | 144 kts | 136° |
| 2026-04-28 06:31 | 45.84890 | -111.25131 | 6141 ft | 113 kts | 138° |
| 2026-04-28 06:31 | 45.84358 | -111.24376 | 5970 ft | 102 kts | 135° |
| 2026-04-28 06:32 | 45.83872 | -111.23701 | 5817 ft | 95 kts | 136° |
| 2026-04-28 06:32 | 45.83413 | -111.23055 | 5672 ft | 91 kts | 135° |
| 2026-04-28 06:32 | 45.82953 | -111.22415 | 5554 ft | 92 kts | 135° |
| 2026-04-28 06:32 | 45.82493 | -111.21770 | 5431 ft | 94 kts | 135° |
| 2026-04-28 06:33 | 45.82022 | -111.21114 | 5315 ft | 94 kts | 135° |
| 2026-04-28 06:33 | 45.81556 | -111.20465 | 5207 ft | 93 kts | 136° |
| 2026-04-28 06:33 | 45.81101 | -111.19828 | 5101 ft | 92 kts | 136° |
| 2026-04-28 06:33 | 45.80644 | -111.19191 | 4989 ft | 92 kts | 136° |
| 2026-04-28 06:34 | 45.80182 | -111.18541 | 4888 ft | 93 kts | 136° |
| 2026-04-28 06:34 | 45.79711 | -111.17886 | 4748 ft | 95 kts | 136° |
| 2026-04-28 06:34 | 45.79239 | -111.17224 | 4607 ft | 96 kts | 137° |
| 2026-04-28 06:34 | 45.78768 | -111.16566 | 4486 ft | 91 kts | 136° |
| 2026-04-28 06:35 | 45.78371 | -111.16072 | 4474 ft | 57 kts | 122° |
| 2026-04-28 06:35 | 45.78153 | -111.15735 | 4476 ft | 41 kts | 136° |
| 2026-04-28 06:35 | 45.77974 | -111.15493 | 4475 ft | 9 kts | 148° |
| 2026-04-28 06:35 | 45.77950 | -111.15498 | 4475 ft | 2 kts | 219° |
| 2026-04-28 06:36 | 45.77914 | -111.15549 | 4475 ft | 11 kts | 227° |
| 2026-04-28 06:36 | 45.77898 | -111.15575 | 4475 ft | 0 kts | 224° |
| 2026-04-28 06:37 | 45.77880 | -111.15597 | 4475 ft | 8 kts | 220° |
| 2026-04-28 06:37 | 45.77818 | -111.15668 | 4475 ft | 13 kts | 166° |
| 2026-04-28 06:37 | 45.77722 | -111.15547 | 4475 ft | 24 kts | 136° |
| 2026-04-28 06:38 | 45.77598 | -111.15373 | 4475 ft | 26 kts | 134° |
| 2026-04-28 06:38 | 45.77446 | -111.15162 | 4475 ft | 33 kts | 136° |
| 2026-04-28 06:38 | 45.77366 | -111.15052 | 4475 ft | 5 kts | 134° |
| 2026-04-28 06:38 | 45.77342 | -111.15018 | 4475 ft | 6 kts | 135° |
| 2026-04-28 06:39 | 45.77305 | -111.14967 | 4475 ft | 10 kts | 136° |
| 2026-04-28 06:39 | 45.77242 | -111.14879 | 4475 ft | 16 kts | 136° |
| 2026-04-28 06:39 | 45.77155 | -111.14757 | 4475 ft | 7 kts | 141° |
| 2026-04-28 06:39 | 45.77108 | -111.14756 | 4475 ft | 7 kts | 189° |
| 2026-04-28 06:40 | 45.77081 | -111.14756 | 4475 ft | 0 kts | 172° |
| 2026-04-28 06:40 | 45.77075 | -111.14758 | 4475 ft | 4 kts | 197° |
| 2026-04-28 06:40 | 45.77038 | -111.14763 | 4475 ft | 0 kts | 140° |